Time;durP1;ratioP1;P1;durP2;ratioP2;P2;SDS_P1;SDS_P2;PMS_P1;PMS_P2;Temp;Humidity;BMP_temperature;BMP_pressure;BME280_temperature;BME280_humidity;BME280_pressure;Samples;Min_cycle;Max_cycle;Signal;HPM_P1;HPM_P2
2021/11/27 00:00:28;;;;;;;40.08;22.80;;;;;;;;;;5003819;28;20536;-60
2021/11/27 00:02:57;;;;;;;45.30;28.95;;;;;;;;;;5003145;28;20351;-59
2021/11/27 00:05:24;;;;;;;42.33;23.80;;;;;;;;;;5003518;28;20036;-59
2021/11/27 00:07:51;;;;;;;33.40;20.83;;;;;;;;;;5003403;28;20033;-59
2021/11/27 00:10:18;;;;;;;30.48;20.27;;;;;;;;;;5003425;28;20136;-58
2021/11/27 00:12:44;;;;;;;23.88;16.35;;;;;;;;;;5003250;28;20785;-58
2021/11/27 00:15:11;;;;;;;28.38;19.00;;;;;;;;;;5003482;28;20064;-57
2021/11/27 00:17:40;;;;;;;35.78;23.95;;;;;;;;;;5003597;28;20048;-58
2021/11/27 00:20:09;;;;;;;59.15;35.47;;;;;;;;;;5003514;28;20037;-57
2021/11/27 00:22:35;;;;;;;40.83;24.40;;;;;;;;;;5002991;28;20140;-57
2021/11/27 00:25:01;;;;;;;33.92;20.35;;;;;;;;;;5003690;28;20077;-58
2021/11/27 00:27:27;;;;;;;37.33;23.40;;;;;;;;;;5003304;28;20746;-58
2021/11/27 00:29:56;;;;;;;42.97;26.05;;;;;;;;;;5003808;28;20033;-57
2021/11/27 00:32:25;;;;;;;35.90;24.17;;;;;;;;;;5003079;28;20037;-59
2021/11/27 00:34:53;;;;;;;69.47;38.75;;;;;;;;;;5003378;28;20080;-58
2021/11/27 00:37:19;;;;;;;34.05;21.92;;;;;;;;;;5003192;28;20025;-58
2021/11/27 00:39:46;;;;;;;36.08;17.52;;;;;;;;;;5003378;28;20140;-58
2021/11/27 00:42:12;;;;;;;42.67;26.02;;;;;;;;;;5003089;28;20545;-58
2021/11/27 00:44:38;;;;;;;38.05;22.95;;;;;;;;;;5003538;28;20148;-58
2021/11/27 00:47:04;;;;;;;28.17;16.85;;;;;;;;;;5003331;28;20096;-58
2021/11/27 00:49:32;;;;;;;43.35;25.48;;;;;;;;;;5003247;28;20033;-58
2021/11/27 00:51:58;;;;;;;38.35;24.70;;;;;;;;;;5005410;28;20018;-57
2021/11/27 00:54:29;;;;;;;46.10;26.30;;;;;;;;;;5013357;28;20501;-58
2021/11/27 00:56:55;;;;;;;45.50;27.10;;;;;;;;;;5013215;28;20077;-58
2021/11/27 00:59:21;;;;;;;45.33;25.58;;;;;;;;;;5013272;28;20014;-57
2021/11/27 01:01:49;;;;;;;43.10;24.83;;;;;;;;;;5013204;28;20061;-57
2021/11/27 01:04:18;;;;;;;40.05;23.17;;;;;;;;;;5013443;28;20402;-56
2021/11/27 01:06:44;;;;;;;40.22;24.15;;;;;;;;;;5013184;28;20049;-57
2021/11/27 01:09:12;;;;;;;31.08;19.02;;;;;;;;;;5013236;28;20026;-57
2021/11/27 01:11:43;;;;;;;29.92;17.83;;;;;;;;;;5013086;28;20030;-57
2021/11/27 01:14:15;;;;;;;28.17;18.50;;;;;;;;;;5013091;28;20042;-57
2021/11/27 01:16:42;;;;;;;33.72;19.20;;;;;;;;;;5013301;28;20034;-57
2021/11/27 01:19:10;;;;;;;29.73;17.40;;;;;;;;;;5013240;28;20072;-56
2021/11/27 01:21:43;;;;;;;26.48;15.45;;;;;;;;;;5013427;28;20093;-57
2021/11/27 01:24:11;;;;;;;26.67;15.73;;;;;;;;;;5028174;28;20386;-56
2021/11/27 01:26:38;;;;;;;27.85;17.35;;;;;;;;;;5013064;28;20030;-57
2021/11/27 01:29:04;;;;;;;26.77;17.98;;;;;;;;;;5013123;28;20028;-59
2021/11/27 01:31:30;;;;;;;24.58;14.85;;;;;;;;;;5013236;28;20068;-59
2021/11/27 01:33:56;;;;;;;24.98;15.85;;;;;;;;;;5013067;28;20026;-59
2021/11/27 01:36:23;;;;;;;25.85;16.17;;;;;;;;;;5013158;28;20440;-58
2021/11/27 01:38:49;;;;;;;21.08;14.07;;;;;;;;;;5014050;28;20386;-58
2021/11/27 01:41:15;;;;;;;24.40;16.10;;;;;;;;;;5031416;28;20025;-59
2021/11/27 01:43:44;;;;;;;23.83;15.13;;;;;;;;;;5016331;28;20041;-59
2021/11/27 01:46:11;;;;;;;21.08;12.98;;;;;;;;;;5016230;28;20033;-58
2021/11/27 01:48:38;;;;;;;18.60;11.27;;;;;;;;;;5016475;28;20032;-58
2021/11/27 01:51:06;;;;;;;15.45;11.32;;;;;;;;;;5016368;28;20018;-58
2021/11/27 01:53:35;;;;;;;17.08;11.10;;;;;;;;;;5016173;28;20076;-58
2021/11/27 01:56:03;;;;;;;14.50;11.32;;;;;;;;;;5016110;28;20076;-58
2021/11/27 01:58:29;;;;;;;18.10;12.13;;;;;;;;;;5016060;28;20470;-58
2021/11/27 02:00:59;;;;;;;21.02;12.20;;;;;;;;;;5015930;28;20034;-58
2021/11/27 02:03:26;;;;;;;19.15;12.57;;;;;;;;;;5015868;28;20406;-57
2021/11/27 02:05:52;;;;;;;20.42;13.75;;;;;;;;;;5015939;28;20033;-58
2021/11/27 02:08:20;;;;;;;21.42;14.80;;;;;;;;;;5031081;28;20030;-58
2021/11/27 02:10:47;;;;;;;17.63;11.15;;;;;;;;;;5015864;28;20084;-58
2021/11/27 02:13:13;;;;;;;26.70;15.52;;;;;;;;;;5015720;28;20105;-58
2021/11/27 02:15:39;;;;;;;19.42;13.00;;;;;;;;;;5015517;28;20414;-59
2021/11/27 02:18:06;;;;;;;14.70;10.70;;;;;;;;;;5015824;28;20148;-58
2021/11/27 02:20:37;;;;;;;20.75;12.77;;;;;;;;;;5015832;28;20379;-57
2021/11/27 02:23:03;;;;;;;17.27;11.05;;;;;;;;;;5015585;28;20041;-57
2021/11/27 02:25:31;;;;;;;13.52;10.20;;;;;;;;;;5015622;28;20018;-56
2021/11/27 02:27:57;;;;;;;21.25;13.77;;;;;;;;;;5015274;28;20449;-58
2021/11/27 02:30:23;;;;;;;20.58;14.45;;;;;;;;;;5015535;28;20037;-58
2021/11/27 02:32:50;;;;;;;23.15;14.90;;;;;;;;;;5015879;28;20164;-57
2021/11/27 02:35:16;;;;;;;25.35;14.80;;;;;;;;;;5015287;28;20044;-57
2021/11/27 02:37:42;;;;;;;19.35;12.98;;;;;;;;;;5015317;28;20029;-57
2021/11/27 02:40:09;;;;;;;20.92;14.15;;;;;;;;;;5015338;28;20022;-56
2021/11/27 02:42:35;;;;;;;23.30;14.13;;;;;;;;;;5015153;28;20033;-57
2021/11/27 02:45:02;;;;;;;19.85;14.25;;;;;;;;;;5015055;28;20033;-56
2021/11/27 02:47:28;;;;;;;23.10;14.95;;;;;;;;;;5015134;28;20033;-57
2021/11/27 02:49:54;;;;;;;20.33;13.57;;;;;;;;;;5015136;28;20033;-56
2021/11/27 02:52:20;;;;;;;23.23;15.50;;;;;;;;;;5015174;28;20030;-57
2021/11/27 02:54:51;;;;;;;21.20;14.57;;;;;;;;;;5014925;28;20017;-59
2021/11/27 02:57:17;;;;;;;23.40;15.20;;;;;;;;;;5014962;28;20490;-56
2021/11/27 02:59:43;;;;;;;20.52;13.68;;;;;;;;;;5014777;28;20033;-56
2021/11/27 03:02:11;;;;;;;20.70;13.20;;;;;;;;;;5014948;28;20390;-58
2021/11/27 03:04:38;;;;;;;23.35;15.02;;;;;;;;;;5014751;28;20018;-58
2021/11/27 03:07:04;;;;;;;21.63;12.93;;;;;;;;;;5015049;28;20022;-58
2021/11/27 03:09:31;;;;;;;23.77;15.93;;;;;;;;;;5014636;28;20024;-57
2021/11/27 03:11:58;;;;;;;22.30;15.20;;;;;;;;;;5014606;28;20485;-58
2021/11/27 03:14:26;;;;;;;21.45;14.50;;;;;;;;;;5029447;28;20045;-58
2021/11/27 03:16:53;;;;;;;22.98;14.73;;;;;;;;;;5014811;28;20026;-58
2021/11/27 03:19:19;;;;;;;19.50;13.85;;;;;;;;;;5014575;28;20049;-58
2021/11/27 03:21:45;;;;;;;19.02;12.68;;;;;;;;;;5014440;28;20049;-58
2021/11/27 03:24:15;;;;;;;21.52;14.65;;;;;;;;;;5014496;28;20021;-58
2021/11/27 03:26:44;;;;;;;24.60;15.43;;;;;;;;;;5014400;28;20041;-58
2021/11/27 03:29:15;;;;;;;21.98;13.98;;;;;;;;;;5014223;28;20028;-58
2021/11/27 03:31:43;;;;;;;22.67;14.32;;;;;;;;;;5014484;28;20049;-58
2021/11/27 03:34:09;;;;;;;25.30;15.23;;;;;;;;;;5014529;28;20145;-58
2021/11/27 03:36:35;;;;;;;27.55;16.52;;;;;;;;;;5014154;28;20108;-58
2021/11/27 03:39:04;;;;;;;23.00;14.48;;;;;;;;;;5014581;28;20096;-57
2021/11/27 03:41:31;;;;;;;24.90;15.50;;;;;;;;;;5014026;28;20037;-57
2021/11/27 03:43:57;;;;;;;23.42;15.02;;;;;;;;;;5013879;28;20034;-57
2021/11/27 03:46:23;;;;;;;22.98;14.55;;;;;;;;;;5014096;28;20057;-57
2021/11/27 03:48:52;;;;;;;20.48;13.68;;;;;;;;;;5013971;28;20466;-58
2021/11/27 03:51:20;;;;;;;22.77;14.73;;;;;;;;;;5013935;28;20482;-59
2021/11/27 03:53:47;;;;;;;23.63;15.20;;;;;;;;;;5013953;28;20026;-57
2021/11/27 03:56:14;;;;;;;21.50;14.63;;;;;;;;;;5013989;28;20045;-56
2021/11/27 03:58:40;;;;;;;28.80;16.55;;;;;;;;;;5013855;28;20446;-59
2021/11/27 04:01:08;;;;;;;27.58;16.42;;;;;;;;;;5013351;28;20073;-58
2021/11/27 04:03:39;;;;;;;28.38;17.05;;;;;;;;;;5013967;28;20030;-57
2021/11/27 04:06:06;;;;;;;27.92;16.77;;;;;;;;;;5029117;28;20391;-56
2021/11/27 04:08:32;;;;;;;26.52;16.33;;;;;;;;;;5013962;28;20030;-56
2021/11/27 04:10:58;;;;;;;24.80;15.05;;;;;;;;;;5013666;28;20025;-56
2021/11/27 04:13:24;;;;;;;23.25;15.27;;;;;;;;;;5013558;28;20117;-58
2021/11/27 04:15:51;;;;;;;27.27;17.98;;;;;;;;;;5013595;28;20126;-57
2021/11/27 04:18:17;;;;;;;27.63;17.25;;;;;;;;;;5013931;28;20028;-56
2021/11/27 04:20:44;;;;;;;23.23;16.17;;;;;;;;;;5013574;28;20095;-57
2021/11/27 04:23:11;;;;;;;25.00;15.20;;;;;;;;;;5013611;28;20064;-57
2021/11/27 04:25:37;;;;;;;25.35;16.13;;;;;;;;;;5013597;28;20022;-57
2021/11/27 04:28:03;;;;;;;26.52;17.63;;;;;;;;;;5013454;28;20030;-57
2021/11/27 04:30:33;;;;;;;25.27;16.50;;;;;;;;;;5013522;28;20486;-58
2021/11/27 04:33:02;;;;;;;24.33;16.00;;;;;;;;;;5013478;28;20076;-58
2021/11/27 04:35:29;;;;;;;22.92;15.05;;;;;;;;;;5013516;28;20386;-58
2021/11/27 04:37:56;;;;;;;23.38;15.27;;;;;;;;;;5013420;28;20109;-57
2021/11/27 04:40:23;;;;;;;25.30;16.23;;;;;;;;;;5013414;28;20386;-58
2021/11/27 04:42:49;;;;;;;26.42;15.88;;;;;;;;;;5013342;28;20034;-58
2021/11/27 04:45:16;;;;;;;24.00;15.43;;;;;;;;;;5028414;28;20054;-58
2021/11/27 04:47:42;;;;;;;24.10;15.60;;;;;;;;;;5013281;28;20034;-59
2021/11/27 04:50:09;;;;;;;27.30;17.42;;;;;;;;;;5013464;28;20478;-59
2021/11/27 04:52:37;;;;;;;30.90;18.73;;;;;;;;;;5013343;28;20459;-59
2021/11/27 04:55:04;;;;;;;28.95;17.67;;;;;;;;;;5013315;28;20149;-58
2021/11/27 04:57:30;;;;;;;29.38;17.98;;;;;;;;;;5013166;28;20030;-58
2021/11/27 04:59:56;;;;;;;30.70;17.80;;;;;;;;;;5013228;28;20022;-58
2021/11/27 05:02:23;;;;;;;31.35;19.23;;;;;;;;;;5013200;28;20042;-58
2021/11/27 05:04:49;;;;;;;30.17;18.60;;;;;;;;;;5013237;28;20082;-58
2021/11/27 05:07:15;;;;;;;31.95;18.95;;;;;;;;;;5013236;28;20041;-58
2021/11/27 05:09:41;;;;;;;29.63;18.02;;;;;;;;;;5013247;28;20026;-58
2021/11/27 05:12:08;;;;;;;32.42;19.70;;;;;;;;;;5013057;28;20048;-57
2021/11/27 05:14:34;;;;;;;30.15;19.50;;;;;;;;;;5015292;28;20050;-58
2021/11/27 05:17:02;;;;;;;29.10;19.60;;;;;;;;;;5016781;28;20413;-57
2021/11/27 05:19:28;;;;;;;31.25;18.77;;;;;;;;;;5016891;28;20052;-58
2021/11/27 05:21:55;;;;;;;34.58;22.38;;;;;;;;;;5016464;28;20022;-58
2021/11/27 05:24:21;;;;;;;35.75;23.52;;;;;;;;;;5016626;28;20479;-58
2021/11/27 05:26:47;;;;;;;36.20;24.88;;;;;;;;;;5016529;28;20064;-56
2021/11/27 05:29:13;;;;;;;41.65;25.58;;;;;;;;;;5017022;28;20478;-57
2021/11/27 05:31:39;;;;;;;34.78;23.25;;;;;;;;;;5016960;28;20045;-58
2021/11/27 05:36:35;;;;;;;29.33;18.48;;;;;;;;;;5016542;28;20022;-59
2021/11/27 05:39:03;;;;;;;26.00;18.20;;;;;;;;;;5016476;28;20026;-57
2021/11/27 05:41:29;;;;;;;30.17;18.77;;;;;;;;;;5016287;28;20486;-57
2021/11/27 05:43:56;;;;;;;25.60;17.23;;;;;;;;;;5016196;28;20457;-57
2021/11/27 05:46:24;;;;;;;29.45;17.90;;;;;;;;;;5016361;28;20387;-56
2021/11/27 05:48:51;;;;;;;29.45;18.65;;;;;;;;;;5016485;28;20463;-57
2021/11/27 05:51:17;;;;;;;27.95;18.35;;;;;;;;;;5016217;28;20021;-54
2021/11/27 05:53:45;;;;;;;32.75;19.55;;;;;;;;;;5016120;28;20106;-57
2021/11/27 05:56:11;;;;;;;31.83;18.67;;;;;;;;;;5016222;28;20148;-57
2021/11/27 05:58:40;;;;;;;30.58;19.95;;;;;;;;;;5016058;28;20104;-58
2021/11/27 06:01:06;;;;;;;32.30;19.60;;;;;;;;;;5016196;28;20080;-57
2021/11/27 06:03:33;;;;;;;30.88;19.25;;;;;;;;;;5030674;28;20137;-58
2021/11/27 06:05:59;;;;;;;30.38;19.95;;;;;;;;;;5015937;28;20072;-58
2021/11/27 06:08:27;;;;;;;37.08;21.95;;;;;;;;;;5015906;28;20084;-58
2021/11/27 06:10:53;;;;;;;45.22;25.88;;;;;;;;;;5030617;28;20164;-58
2021/11/27 06:13:20;;;;;;;44.75;28.60;;;;;;;;;;5015558;28;20041;-58
2021/11/27 06:15:46;;;;;;;45.03;28.35;;;;;;;;;;5015618;28;20057;-58
2021/11/27 06:18:12;;;;;;;41.55;25.85;;;;;;;;;;5030783;28;20390;-58
2021/11/27 06:20:38;;;;;;;44.22;25.73;;;;;;;;;;5015779;28;20034;-58
2021/11/27 06:23:09;;;;;;;42.83;28.00;;;;;;;;;;5015488;28;20500;-58
2021/11/27 06:25:35;;;;;;;44.03;28.88;;;;;;;;;;5015042;28;20033;-58
2021/11/27 06:28:01;;;;;;;72.85;38.95;;;;;;;;;;5015583;28;20022;-58
2021/11/27 06:30:27;;;;;;;76.50;42.53;;;;;;;;;;5015486;28;20076;-57
2021/11/27 06:32:53;;;;;;;147.30;76.20;;;;;;;;;;5015452;28;20030;-58
2021/11/27 06:35:22;;;;;;;135.35;74.25;;;;;;;;;;5015259;28;20121;-58
2021/11/27 06:37:48;;;;;;;235.68;95.57;;;;;;;;;;5015364;28;20049;-57
2021/11/27 06:40:17;;;;;;;204.57;81.55;;;;;;;;;;5015276;28;20371;-58
2021/11/27 06:42:43;;;;;;;167.00;70.57;;;;;;;;;;5015149;28;20029;-58
2021/11/27 06:45:09;;;;;;;131.63;64.10;;;;;;;;;;5015042;28;20474;-57
2021/11/27 06:47:35;;;;;;;119.78;58.90;;;;;;;;;;5015155;28;20572;-57
2021/11/27 06:50:01;;;;;;;68.13;39.80;;;;;;;;;;5015124;28;20025;-58
2021/11/27 06:52:27;;;;;;;93.43;49.15;;;;;;;;;;5015034;28;20025;-57
2021/11/27 06:54:53;;;;;;;94.45;46.75;;;;;;;;;;5014877;28;20104;-59
2021/11/27 06:57:19;;;;;;;49.72;31.13;;;;;;;;;;5015102;28;20022;-58
2021/11/27 06:59:46;;;;;;;35.58;23.55;;;;;;;;;;5015018;28;20057;-54
2021/11/27 07:02:12;;;;;;;34.30;24.25;;;;;;;;;;5015126;28;20026;-57
2021/11/27 07:04:38;;;;;;;38.78;28.95;;;;;;;;;;5015015;28;20091;-58
2021/11/27 07:07:04;;;;;;;33.65;24.85;;;;;;;;;;5014973;28;20033;-58
2021/11/27 07:09:30;;;;;;;27.33;18.88;;;;;;;;;;5014736;28;20099;-59
2021/11/27 07:11:56;;;;;;;25.10;18.70;;;;;;;;;;5014708;28;20018;-58
2021/11/27 07:14:24;;;;;;;29.90;18.92;;;;;;;;;;5014494;28;20058;-58
2021/11/27 07:16:51;;;;;;;29.75;18.45;;;;;;;;;;5014905;28;20522;-59
2021/11/27 07:19:17;;;;;;;27.63;17.95;;;;;;;;;;5014795;28;20026;-59
2021/11/27 07:21:43;;;;;;;21.70;15.85;;;;;;;;;;5014684;28;20113;-59
2021/11/27 07:24:09;;;;;;;21.13;15.90;;;;;;;;;;5014670;28;20101;-59
2021/11/27 07:26:35;;;;;;;24.52;16.48;;;;;;;;;;5014830;28;20030;-60
2021/11/27 07:29:01;;;;;;;27.15;17.88;;;;;;;;;;5015496;28;20018;-62
2021/11/27 07:31:27;;;;;;;21.85;14.82;;;;;;;;;;5014763;28;20475;-60
2021/11/27 07:33:56;;;;;;;32.05;19.92;;;;;;;;;;5014581;28;20033;-58
2021/11/27 07:36:29;;;;;;;24.83;17.08;;;;;;;;;;5013585;28;20021;-58
2021/11/27 07:38:56;;;;;;;27.83;19.75;;;;;;;;;;5014288;28;20018;-62
2021/11/27 07:41:22;;;;;;;29.77;17.65;;;;;;;;;;5014022;28;20076;-65
2021/11/27 07:43:48;;;;;;;38.78;23.90;;;;;;;;;;5029001;28;20038;-67
2021/11/27 07:46:16;;;;;;;39.00;24.33;;;;;;;;;;5014255;28;20052;-66
2021/11/27 07:48:42;;;;;;;26.00;17.20;;;;;;;;;;5014160;28;20026;-63
2021/11/27 07:51:08;;;;;;;33.70;20.58;;;;;;;;;;5014034;28;20050;-66
2021/11/27 07:53:37;;;;;;;20.77;15.50;;;;;;;;;;5013896;28;20538;-63
2021/11/27 07:56:04;;;;;;;22.02;15.55;;;;;;;;;;5013821;28;20049;-62
2021/11/27 07:58:33;;;;;;;19.05;13.18;;;;;;;;;;5014070;28;20072;-64
2021/11/27 08:01:00;;;;;;;18.27;12.98;;;;;;;;;;5013917;28;20474;-64
2021/11/27 08:03:26;;;;;;;21.77;14.85;;;;;;;;;;5013948;28;20088;-65
2021/11/27 08:05:52;;;;;;;25.67;19.02;;;;;;;;;;5013858;28;20022;-67
2021/11/27 08:08:18;;;;;;;21.67;15.43;;;;;;;;;;5013768;28;20021;-63
2021/11/27 08:10:44;;;;;;;18.45;14.07;;;;;;;;;;5013535;28;20014;-64
2021/11/27 08:13:10;;;;;;;22.90;14.60;;;;;;;;;;5019542;28;20031;-62
2021/11/27 08:15:36;;;;;;;26.45;17.58;;;;;;;;;;5032662;28;20513;-61
2021/11/27 08:18:03;;;;;;;27.10;18.23;;;;;;;;;;5032730;28;20029;-64
2021/11/27 08:20:29;;;;;;;25.33;15.48;;;;;;;;;;5032975;28;20017;-64
2021/11/27 08:22:55;;;;;;;22.45;15.38;;;;;;;;;;5032800;28;20033;-61
2021/11/27 08:25:21;;;;;;;24.55;16.63;;;;;;;;;;5032676;28;20018;-61
2021/11/27 08:27:48;;;;;;;22.77;15.25;;;;;;;;;;5030193;28;20040;-58
2021/11/27 08:30:14;;;;;;;23.83;16.25;;;;;;;;;;5032746;28;20028;-60
2021/11/27 08:32:41;;;;;;;27.38;17.23;;;;;;;;;;5032689;28;20033;-59
2021/11/27 08:35:08;;;;;;;26.83;17.27;;;;;;;;;;5032743;28;20009;-58
2021/11/27 08:37:34;;;;;;;23.30;15.90;;;;;;;;;;5032152;28;20358;-60
2021/11/27 08:40:01;;;;;;;25.73;16.33;;;;;;;;;;5031511;28;20029;-57
2021/11/27 08:42:29;;;;;;;31.65;19.52;;;;;;;;;;5031726;28;20030;-58
2021/11/27 08:44:56;;;;;;;21.80;14.20;;;;;;;;;;5030334;28;20029;-58
2021/11/27 08:47:22;;;;;;;23.05;15.73;;;;;;;;;;5032140;28;20025;-57
2021/11/27 08:49:50;;;;;;;22.25;13.73;;;;;;;;;;5035792;28;20035;-59
2021/11/27 08:52:18;;;;;;;21.35;13.68;;;;;;;;;;5034248;28;20060;-60
2021/11/27 08:54:44;;;;;;;25.02;15.85;;;;;;;;;;5035442;28;20064;-60
2021/11/27 08:57:10;;;;;;;26.30;16.05;;;;;;;;;;5035630;28;20076;-61
2021/11/27 08:59:36;;;;;;;20.70;13.23;;;;;;;;;;5034088;28;20446;-60
2021/11/27 09:02:05;;;;;;;24.25;15.45;;;;;;;;;;5035468;28;20045;-59
2021/11/27 09:04:33;;;;;;;24.60;15.18;;;;;;;;;;5035422;28;20080;-59
2021/11/27 09:07:00;;;;;;;27.30;16.80;;;;;;;;;;5031766;28;20560;-59
2021/11/27 09:09:26;;;;;;;27.27;17.10;;;;;;;;;;5033945;28;20034;-59
2021/11/27 09:11:53;;;;;;;23.15;15.45;;;;;;;;;;5035120;28;20359;-59
2021/11/27 09:14:19;;;;;;;24.30;15.02;;;;;;;;;;5034997;28;20095;-56
2021/11/27 09:16:45;;;;;;;26.98;18.27;;;;;;;;;;5035182;28;20030;-59
2021/11/27 09:19:16;;;;;;;26.00;16.63;;;;;;;;;;5035263;28;20478;-59
2021/11/27 09:21:42;;;;;;;28.95;17.17;;;;;;;;;;5032935;28;20052;-56
2021/11/27 09:24:09;;;;;;;28.33;18.83;;;;;;;;;;5027196;28;20091;-58
2021/11/27 09:26:37;;;;;;;22.85;15.60;;;;;;;;;;5032775;28;20330;-55
2021/11/27 09:29:05;;;;;;;59.75;35.40;;;;;;;;;;5032502;28;20016;-53
2021/11/27 09:31:31;;;;;;;29.67;18.90;;;;;;;;;;5032722;28;20068;-56
2021/11/27 09:33:57;;;;;;;39.55;23.40;;;;;;;;;;5031411;28;20028;-54
2021/11/27 09:36:24;;;;;;;21.58;14.40;;;;;;;;;;5031051;28;20026;-58
2021/11/27 09:38:51;;;;;;;20.30;13.88;;;;;;;;;;5032064;28;20068;-55
2021/11/27 09:41:28;;;;;;;23.65;16.33;;;;;;;;;;5032130;28;20107;-58
2021/11/27 09:44:06;;;;;;;27.15;15.32;;;;;;;;;;5030922;28;20624;-55
2021/11/27 09:46:33;;;;;;;33.20;20.17;;;;;;;;;;5031982;28;20129;-55
2021/11/27 09:49:01;;;;;;;23.95;16.67;;;;;;;;;;5032479;28;20143;-55
2021/11/27 09:51:29;;;;;;;25.05;15.73;;;;;;;;;;5032007;28;20056;-56
2021/11/27 09:53:58;;;;;;;31.83;18.02;;;;;;;;;;5032184;28;20457;-53
2021/11/27 09:56:25;;;;;;;30.85;16.77;;;;;;;;;;5032216;28;20024;-56
2021/11/27 09:58:54;;;;;;;38.35;20.35;;;;;;;;;;5025967;28;20105;-53
2021/11/27 10:01:25;;;;;;;59.33;31.80;;;;;;;;;;5031522;28;20021;-54
2021/11/27 10:04:00;;;;;;;42.05;24.00;;;;;;;;;;5031905;28;20050;-54
2021/11/27 10:06:28;;;;;;;58.85;32.45;;;;;;;;;;5026173;28;20131;-53
2021/11/27 10:08:55;;;;;;;30.13;18.85;;;;;;;;;;5027761;28;20033;-57
2021/11/27 10:11:21;;;;;;;27.90;18.20;;;;;;;;;;5022737;28;20134;-55
2021/11/27 10:13:47;;;;;;;85.28;55.95;;;;;;;;;;5026670;28;20160;-55
2021/11/27 10:16:14;;;;;;;49.67;30.40;;;;;;;;;;5028131;28;20449;-56
2021/11/27 10:18:40;;;;;;;31.92;20.80;;;;;;;;;;5026323;28;20104;-60
2021/11/27 10:21:24;;;;;;;40.75;22.73;;;;;;;;;;5027301;28;20025;-54
2021/11/27 10:23:51;;;;;;;37.97;24.80;;;;;;;;;;5027275;28;20099;-58
2021/11/27 10:26:35;;;;;;;51.85;30.77;;;;;;;;;;5028616;28;20033;-58
2021/11/27 10:29:21;;;;;;;43.85;28.80;;;;;;;;;;5027283;28;20021;-61
2021/11/27 10:31:51;;;;;;;37.97;25.65;;;;;;;;;;5023077;28;20111;-55
2021/11/27 10:34:24;;;;;;;56.15;36.72;;;;;;;;;;5025567;28;20191;-54
2021/11/27 10:36:51;;;;;;;63.97;35.25;;;;;;;;;;5021567;28;20048;-56
2021/11/27 10:39:20;;;;;;;33.15;22.45;;;;;;;;;;5025674;28;20038;-55
2021/11/27 10:42:00;;;;;;;34.33;23.35;;;;;;;;;;5021945;28;20024;-55
2021/11/27 10:44:28;;;;;;;32.15;21.33;;;;;;;;;;5025927;28;20425;-55
2021/11/27 10:47:07;;;;;;;33.25;20.92;;;;;;;;;;5026449;28;20094;-58
2021/11/27 10:49:33;;;;;;;51.58;31.85;;;;;;;;;;5026767;28;20033;-52
2021/11/27 10:52:06;;;;;;;57.20;35.53;;;;;;;;;;5026840;28;20035;-58
2021/11/27 10:54:48;;;;;;;36.88;23.05;;;;;;;;;;5028551;28;20393;-54
2021/11/27 10:57:34;;;;;;;34.75;22.33;;;;;;;;;;5030753;28;20476;-55
2021/11/27 11:00:03;;;;;;;37.58;25.73;;;;;;;;;;5032075;28;20029;-54
2021/11/27 11:02:32;;;;;;;32.35;21.10;;;;;;;;;;5030585;28;20025;-53
2021/11/27 11:05:01;;;;;;;35.90;24.60;;;;;;;;;;5032931;28;20040;-54
2021/11/27 11:07:30;;;;;;;31.83;21.60;;;;;;;;;;5033246;28;20022;-54
2021/11/27 11:09:59;;;;;;;39.03;24.90;;;;;;;;;;5032487;28;20116;-53
2021/11/27 11:12:39;;;;;;;51.00;32.90;;;;;;;;;;5021140;28;20030;-56
2021/11/27 11:15:14;;;;;;;62.33;39.50;;;;;;;;;;5014036;28;20463;-58
2021/11/27 11:17:41;;;;;;;38.70;26.00;;;;;;;;;;5014338;28;20030;-58
2021/11/27 11:20:11;;;;;;;31.90;21.77;;;;;;;;;;5014369;28;20029;-57
2021/11/27 11:22:37;;;;;;;46.65;29.58;;;;;;;;;;5014159;28;20454;-61
2021/11/27 11:25:08;;;;;;;53.47;32.20;;;;;;;;;;5014394;28;20038;-55
2021/11/27 11:27:40;;;;;;;36.60;25.50;;;;;;;;;;5014347;28;20469;-56
2021/11/27 11:30:07;;;;;;;66.13;43.30;;;;;;;;;;5014768;28;20789;-55
2021/11/27 11:32:33;;;;;;;66.55;42.22;;;;;;;;;;5014178;28;20057;-57
2021/11/27 11:35:03;;;;;;;62.72;41.60;;;;;;;;;;5014109;28;20030;-57
2021/11/27 11:37:30;;;;;;;66.00;42.97;;;;;;;;;;5014261;28;20053;-59
2021/11/27 11:39:56;;;;;;;74.70;46.28;;;;;;;;;;5014161;28;20097;-56
2021/11/27 11:42:26;;;;;;;64.47;42.53;;;;;;;;;;5013991;28;20025;-55
2021/11/27 11:44:55;;;;;;;58.30;39.38;;;;;;;;;;5013634;28;20038;-56
2021/11/27 11:47:22;;;;;;;56.28;39.55;;;;;;;;;;5013872;28;20053;-55
2021/11/27 11:49:52;;;;;;;64.82;40.95;;;;;;;;;;5013951;28;20064;-57
2021/11/27 11:52:24;;;;;;;57.58;40.05;;;;;;;;;;5013953;28;20025;-56
2021/11/27 11:54:51;;;;;;;63.50;41.28;;;;;;;;;;5013936;28;20034;-56
2021/11/27 11:57:17;;;;;;;57.45;36.40;;;;;;;;;;5013843;28;20088;-56
2021/11/27 11:59:43;;;;;;;55.55;37.75;;;;;;;;;;5027165;28;20035;-56
2021/11/27 12:02:13;;;;;;;55.72;36.67;;;;;;;;;;5033400;28;20469;-55
2021/11/27 12:05:03;;;;;;;46.22;31.98;;;;;;;;;;5033288;28;20065;-55
2021/11/27 12:07:38;;;;;;;47.03;31.60;;;;;;;;;;5029696;28;20167;-55
2021/11/27 12:10:17;;;;;;;50.08;31.45;;;;;;;;;;5033216;28;20029;-57
2021/11/27 12:12:43;;;;;;;46.97;30.65;;;;;;;;;;5033236;28;20018;-54
2021/11/27 12:15:11;;;;;;;49.05;32.28;;;;;;;;;;5032926;28;20041;-56
2021/11/27 12:17:56;;;;;;;51.13;32.30;;;;;;;;;;5033206;28;20028;-52
2021/11/27 12:20:24;;;;;;;54.92;34.28;;;;;;;;;;5033080;28;20035;-53
2021/11/27 12:22:50;;;;;;;52.55;35.03;;;;;;;;;;5032625;28;20022;-54
2021/11/27 12:25:25;;;;;;;58.83;39.92;;;;;;;;;;5033080;28;20077;-54
2021/11/27 12:27:55;;;;;;;54.08;35.70;;;;;;;;;;5033159;28;20512;-53
2021/11/27 12:30:21;;;;;;;48.72;31.83;;;;;;;;;;5032847;28;20030;-56
2021/11/27 12:32:47;;;;;;;50.45;32.78;;;;;;;;;;5033023;28;20053;-57
2021/11/27 12:35:29;;;;;;;57.22;37.53;;;;;;;;;;5032958;28;20026;-56
2021/11/27 12:38:15;;;;;;;62.40;38.45;;;;;;;;;;5032958;28;20104;-56
2021/11/27 12:40:45;;;;;;;51.78;35.25;;;;;;;;;;5032985;28;20072;-55
2021/11/27 12:43:12;;;;;;;57.35;36.35;;;;;;;;;;5032797;28;20029;-56
2021/11/27 12:45:42;;;;;;;59.00;37.88;;;;;;;;;;5032787;28;20038;-53
2021/11/27 12:48:27;;;;;;;54.45;36.00;;;;;;;;;;5032846;28;20025;-47
2021/11/27 12:51:11;;;;;;;58.22;36.38;;;;;;;;;;5032907;28;20044;-56
2021/11/27 12:53:37;;;;;;;77.25;51.13;;;;;;;;;;5032773;28;20025;-60
2021/11/27 12:56:03;;;;;;;83.05;54.53;;;;;;;;;;5032704;28;20061;-61
2021/11/27 12:58:32;;;;;;;82.00;52.25;;;;;;;;;;5032733;28;20026;-59
2021/11/27 13:00:58;;;;;;;65.50;39.72;;;;;;;;;;5032793;28;20101;-59
2021/11/27 13:03:26;;;;;;;70.32;42.90;;;;;;;;;;5018409;28;20381;-57
2021/11/27 13:05:52;;;;;;;106.10;60.38;;;;;;;;;;5012965;28;20026;-55
2021/11/27 13:08:25;;;;;;;79.65;46.95;;;;;;;;;;5028704;28;20473;-58
2021/11/27 13:10:54;;;;;;;86.40;54.15;;;;;;;;;;5012959;28;20385;-61
2021/11/27 13:13:22;;;;;;;78.00;46.33;;;;;;;;;;5012770;28;20057;-57
2021/11/27 13:15:49;;;;;;;123.43;76.05;;;;;;;;;;5012581;28;20065;-58
2021/11/27 13:18:17;;;;;;;107.32;65.13;;;;;;;;;;5013025;28;20033;-57
2021/11/27 13:20:47;;;;;;;76.75;47.70;;;;;;;;;;5013035;28;20388;-56
2021/11/27 13:23:14;;;;;;;80.55;50.15;;;;;;;;;;5012769;28;20392;-59
2021/11/27 13:25:48;;;;;;;71.13;41.63;;;;;;;;;;5012810;28;20022;-56
2021/11/27 13:28:33;;;;;;;57.08;37.28;;;;;;;;;;5012853;28;20022;-57
2021/11/27 13:31:07;;;;;;;54.83;34.58;;;;;;;;;;5012805;28;20033;-56
2021/11/27 13:33:54;;;;;;;54.65;32.95;;;;;;;;;;5012605;28;20014;-57
2021/11/27 13:36:31;;;;;;;62.72;39.35;;;;;;;;;;5016773;28;20152;-55
2021/11/27 13:39:09;;;;;;;52.80;30.60;;;;;;;;;;5036267;28;20029;-57
2021/11/27 13:41:35;;;;;;;67.68;40.65;;;;;;;;;;5035991;28;20109;-55
2021/11/27 13:44:02;;;;;;;67.35;41.97;;;;;;;;;;5035937;28;20469;-55
2021/11/27 13:46:28;;;;;;;54.08;31.10;;;;;;;;;;5035763;28;20436;-55
2021/11/27 13:49:00;;;;;;;56.58;33.58;;;;;;;;;;5035793;28;20104;-56
2021/11/27 13:51:27;;;;;;;54.47;34.42;;;;;;;;;;5036049;28;20028;-57
2021/11/27 13:53:53;;;;;;;64.75;40.30;;;;;;;;;;5025369;28;20030;-55
2021/11/27 13:56:19;;;;;;;54.38;34.40;;;;;;;;;;5027784;28;20025;-55
2021/11/27 13:58:54;;;;;;;81.40;49.63;;;;;;;;;;5030326;28;21467;-55
2021/11/27 14:01:20;;;;;;;64.50;36.55;;;;;;;;;;5032075;28;20031;-58
2021/11/27 14:03:46;;;;;;;77.78;45.40;;;;;;;;;;5031877;28;20110;-54
2021/11/27 14:06:14;;;;;;;69.40;39.08;;;;;;;;;;5031353;28;20452;-57
2021/11/27 14:08:53;;;;;;;76.60;42.40;;;;;;;;;;5029119;28;20047;-59
2021/11/27 14:11:20;;;;;;;69.95;37.05;;;;;;;;;;5028675;28;20025;-58
2021/11/27 14:14:10;;;;;;;67.85;38.25;;;;;;;;;;5031587;28;20039;-58
2021/11/27 14:16:47;;;;;;;84.45;47.20;;;;;;;;;;5028976;28;20052;-57
2021/11/27 14:19:26;;;;;;;73.28;42.58;;;;;;;;;;5029943;28;20071;-57
2021/11/27 14:22:14;;;;;;;117.28;63.78;;;;;;;;;;5031907;28;20021;-58
2021/11/27 14:24:41;;;;;;;72.93;43.55;;;;;;;;;;5006031;28;20069;-57